Time;durP1;ratioP1;P1;durP2;ratioP2;P2;SDS_P1;SDS_P2;PMS_P1;PMS_P2;Temp;Humidity;BMP_temperature;BMP_pressure;BME280_temperature;BME280_humidity;BME280_pressure;Samples;Min_cycle;Max_cycle;Signal;HPM_P1;HPM_P2
2024/01/25 00:00:48;;;;;;;12.77;2.70;;;;;;;18.41;54.66;101646.19;5072260;28;20166;-63
2024/01/25 00:03:13;;;;;;;8.33;2.57;;;;;;;18.41;54.48;101640.47;5067306;28;20178;-63
2024/01/25 00:05:38;;;;;;;7.43;2.60;;;;;;;18.43;54.55;101637.28;5070653;28;20626;-63
2024/01/25 00:08:04;;;;;;;9.30;2.33;;;;;;;18.44;54.63;101636.09;5072373;28;20174;-63
2024/01/25 00:10:29;;;;;;;10.27;2.50;;;;;;;18.40;55.09;101638.81;5052395;28;20178;-63
2024/01/25 00:12:55;;;;;;;8.23;2.90;;;;;;;18.42;54.45;101645.00;5072615;28;20643;-63
2024/01/25 00:15:20;;;;;;;9.63;3.80;;;;;;;18.40;54.36;101644.53;5054539;28;20194;-63
2024/01/25 00:17:46;;;;;;;12.07;2.90;;;;;;;18.39;54.43;101644.88;5090680;28;20178;-63
2024/01/25 00:20:11;;;;;;;6.23;2.40;;;;;;;18.42;54.50;101642.16;5052322;28;20167;-64
2024/01/25 00:22:38;;;;;;;9.20;2.90;;;;;;;18.40;55.45;101644.53;5055167;28;20174;-64
2024/01/25 00:25:03;;;;;;;7.53;1.77;;;;;;;18.40;54.30;101638.81;5052223;28;20183;-64
2024/01/25 00:27:29;;;;;;;5.53;2.17;;;;;;;18.39;54.53;101634.28;5035755;28;20654;-63
2024/01/25 00:29:55;;;;;;;8.43;2.00;;;;;;;18.39;54.48;101631.44;5052541;28;20634;-63
2024/01/25 00:32:20;;;;;;;9.40;2.57;;;;;;;18.39;54.82;101628.56;5067861;28;20216;-63
2024/01/25 00:34:46;;;;;;;7.60;2.23;;;;;;;18.40;54.37;101635.94;5072091;28;20178;-64
2024/01/25 00:37:11;;;;;;;9.03;2.90;;;;;;;18.37;54.94;101628.06;5039029;28;20265;-63
2024/01/25 00:39:37;;;;;;;8.70;2.10;;;;;;;18.40;54.35;101626.53;5055062;28;20178;-64
2024/01/25 00:42:04;;;;;;;7.87;2.70;;;;;;;18.39;54.63;101620.00;5069125;28;20659;-64
2024/01/25 00:44:30;;;;;;;10.87;2.63;;;;;;;18.40;54.91;101626.53;5038493;28;20175;-63
2024/01/25 00:46:56;;;;;;;13.00;2.70;;;;;;;18.39;55.10;101630.56;5080169;28;20444;-64
2024/01/25 00:49:22;;;;;;;7.43;1.97;;;;;;;18.41;54.48;101631.09;5054346;28;20532;-63
2024/01/25 00:51:48;;;;;;;8.53;2.83;;;;;;;18.40;54.72;101626.53;5054008;28;20868;-64
2024/01/25 00:54:14;;;;;;;6.97;2.40;;;;;;;18.38;54.42;101626.06;5070227;28;20777;-63
2024/01/25 00:56:40;;;;;;;8.43;2.13;;;;;;;18.39;54.70;101619.13;5083793;28;20190;-64
2024/01/25 00:59:06;;;;;;;7.47;2.40;;;;;;;18.38;54.98;101620.34;5069061;28;20410;-63
2024/01/25 01:01:31;;;;;;;8.20;2.43;;;;;;;18.38;54.60;101621.19;5062209;28;20276;-63
2024/01/25 01:03:58;;;;;;;5.87;1.97;;;;;;;18.37;54.81;101618.66;5072128;28;20664;-63
2024/01/25 01:06:23;;;;;;;5.90;2.20;;;;;;;18.38;54.12;101626.91;5035529;28;20178;-63
2024/01/25 01:08:49;;;;;;;7.73;2.43;;;;;;;18.36;54.29;101622.72;5082939;28;20422;-65
2024/01/25 01:11:15;;;;;;;6.37;2.17;;;;;;;18.32;55.11;101630.28;5089258;28;20198;-63
2024/01/25 01:13:40;;;;;;;6.90;2.07;;;;;;;18.36;54.61;101637.00;5052654;28;20199;-64
2024/01/25 01:16:06;;;;;;;4.90;1.73;;;;;;;18.33;55.04;101631.97;5088606;28;20177;-63
2024/01/25 01:18:31;;;;;;;5.47;1.73;;;;;;;18.35;54.37;101630.44;5055426;28;20223;-64
2024/01/25 01:20:57;;;;;;;7.37;3.13;;;;;;;18.35;54.48;101630.44;5089781;28;20178;-63
2024/01/25 01:23:22;;;;;;;6.33;1.97;;;;;;;18.35;54.84;101629.59;5036874;28;20956;-63
2024/01/25 01:25:47;;;;;;;5.77;1.83;;;;;;;18.32;54.94;101631.13;5035374;28;20619;-63
2024/01/25 01:28:13;;;;;;;5.70;2.03;;;;;;;18.34;54.73;101637.34;5063409;28;20229;-63
2024/01/25 01:30:41;;;;;;;8.73;2.77;;;;;;;18.33;55.04;101635.69;5064008;28;20209;-63
2024/01/25 01:33:08;;;;;;;8.00;2.30;;;;;;;18.33;54.74;101632.81;5093300;28;20184;-64
2024/01/25 01:35:33;;;;;;;4.53;1.53;;;;;;;18.34;54.26;101628.78;5074034;28;20533;-64
2024/01/25 01:37:59;;;;;;;5.97;2.17;;;;;;;18.30;54.57;101624.91;5058188;28;20424;-64
2024/01/25 01:40:24;;;;;;;7.67;2.40;;;;;;;18.30;54.67;101633.47;5058576;28;20190;-63
2024/01/25 01:42:49;;;;;;;6.67;2.33;;;;;;;18.33;54.44;101632.81;5057834;28;20182;-63
2024/01/25 01:45:15;;;;;;;7.40;1.97;;;;;;;18.30;54.68;101638.34;5072868;28;20186;-63
2024/01/25 01:47:40;;;;;;;5.50;2.33;;;;;;;18.30;54.86;101641.19;5091384;28;20186;-63
2024/01/25 01:50:06;;;;;;;5.83;2.27;;;;;;;18.30;54.66;101647.75;5092041;28;20186;-64
2024/01/25 01:52:32;;;;;;;8.63;2.10;;;;;;;18.29;54.87;101653.81;5054262;28;20284;-63
2024/01/25 01:54:57;;;;;;;5.30;2.13;;;;;;;18.29;54.63;101657.53;5037056;28;20470;-63
2024/01/25 01:57:23;;;;;;;8.07;2.37;;;;;;;18.27;54.52;101665.59;5064041;28;20236;-65
2024/01/25 01:59:50;;;;;;;7.50;1.90;;;;;;;18.30;54.39;101667.78;5074090;28;20178;-63
2024/01/25 02:02:15;;;;;;;5.00;1.93;;;;;;;18.30;54.68;101661.22;5068938;28;20187;-63
2024/01/25 02:04:41;;;;;;;5.90;2.20;;;;;;;18.29;54.59;101653.81;5045758;28;20475;-63
2024/01/25 02:07:07;;;;;;;7.43;2.23;;;;;;;18.28;54.75;101653.00;5075026;28;20224;-64
2024/01/25 02:09:33;;;;;;;5.40;2.47;;;;;;;18.27;54.73;101654.16;5057207;28;20531;-63
2024/01/25 02:12:02;;;;;;;9.30;2.10;;;;;;;18.28;54.88;101652.16;5056115;28;20199;-63
2024/01/25 02:14:27;;;;;;;6.23;1.87;;;;;;;18.27;55.06;101659.88;5092703;28;20246;-64
2024/01/25 02:16:53;;;;;;;5.60;1.67;;;;;;;18.30;54.52;101662.06;5092526;28;20496;-63
2024/01/25 02:19:18;;;;;;;6.27;1.87;;;;;;;18.28;54.99;101661.59;5039727;28;20182;-63
2024/01/25 02:21:44;;;;;;;6.87;2.30;;;;;;;18.26;54.92;101672.50;5057235;28;20178;-64
2024/01/25 02:24:09;;;;;;;4.60;1.63;;;;;;;18.27;54.81;101668.47;5056986;28;20183;-63
2024/01/25 02:26:35;;;;;;;5.23;1.97;;;;;;;18.27;54.82;101667.63;5074768;28;20238;-63
2024/01/25 02:29:01;;;;;;;4.77;1.70;;;;;;;18.28;54.45;101669.31;5074561;28;20171;-64
2024/01/25 02:31:26;;;;;;;7.40;2.30;;;;;;;18.25;54.43;101664.28;5073934;28;20464;-63
2024/01/25 02:33:52;;;;;;;11.43;2.20;;;;;;;18.24;54.92;101674.88;5057695;28;20182;-65
2024/01/25 02:36:17;;;;;;;6.20;2.27;;;;;;;18.24;54.96;101669.16;5056519;28;20193;-63
2024/01/25 02:38:42;;;;;;;3.80;1.43;;;;;;;18.25;54.62;101675.69;5071522;28;20239;-64
2024/01/25 02:41:08;;;;;;;3.80;1.53;;;;;;;18.26;54.46;101677.41;5071603;28;20201;-64
2024/01/25 02:43:33;;;;;;;5.97;1.60;;;;;;;18.25;54.43;101664.28;5073114;28;20178;-64
2024/01/25 02:45:59;;;;;;;4.90;1.93;;;;;;;18.24;54.62;101669.16;5073365;28;20182;-63
2024/01/25 02:48:24;;;;;;;7.83;1.60;;;;;;;18.24;54.75;101672.03;5056756;28;20227;-64
2024/01/25 02:50:50;;;;;;;6.73;2.00;;;;;;;18.22;54.56;101670.69;5071786;28;20244;-63
2024/01/25 02:53:15;;;;;;;5.37;2.17;;;;;;;18.22;54.53;101664.97;5057127;28;20181;-63
2024/01/25 02:55:40;;;;;;;6.20;2.53;;;;;;;18.22;54.73;101664.97;5074174;28;20209;-63
2024/01/25 02:58:06;;;;;;;5.13;1.83;;;;;;;18.22;54.96;101665.81;5073306;28;20185;-63
2024/01/25 03:00:31;;;;;;;5.43;2.10;;;;;;;18.21;54.79;101664.13;5074044;28;20179;-64
2024/01/25 03:02:57;;;;;;;4.60;1.60;;;;;;;18.22;54.47;101664.97;5057099;28;20151;-63
2024/01/25 03:05:22;;;;;;;5.07;2.17;;;;;;;18.23;54.42;101666.66;5040507;28;20178;-63
2024/01/25 03:07:48;;;;;;;6.43;2.00;;;;;;;18.22;54.71;101659.25;5091974;28;20155;-63
2024/01/25 03:10:13;;;;;;;6.10;1.97;;;;;;;18.20;55.00;101655.91;5057359;28;20154;-63
2024/01/25 03:12:38;;;;;;;4.57;1.60;;;;;;;18.19;55.03;101660.78;5057088;28;20213;-63
2024/01/25 03:15:04;;;;;;;6.73;1.73;;;;;;;18.20;54.58;101658.75;5072906;28;20661;-63
2024/01/25 03:17:30;;;;;;;8.50;2.33;;;;;;;18.21;54.50;101660.47;5055466;28;20216;-63
2024/01/25 03:19:55;;;;;;;4.10;1.60;;;;;;;18.20;54.68;101665.31;5052777;28;21116;-64
2024/01/25 03:22:22;;;;;;;4.87;1.63;;;;;;;18.20;54.67;101656.75;5072269;28;20881;-63
2024/01/25 03:24:47;;;;;;;6.73;2.27;;;;;;;18.20;54.09;101662.47;5070397;28;20236;-64
2024/01/25 03:27:14;;;;;;;4.67;1.97;;;;;;;18.21;54.39;101671.88;5072601;28;21720;-63
2024/01/25 03:29:43;;;;;;;4.40;1.50;;;;;;;18.18;54.41;101670.56;5039837;28;20265;-63
2024/01/25 03:32:09;;;;;;;5.40;1.47;;;;;;;18.20;54.67;101668.19;5053178;28;21231;-64
2024/01/25 03:34:35;;;;;;;5.13;2.00;;;;;;;18.19;54.96;101669.38;5058045;28;20933;-64
2024/01/25 03:37:00;;;;;;;4.87;1.70;;;;;;;18.21;54.32;101672.72;5055360;28;20417;-65
2024/01/25 03:39:26;;;;;;;4.97;1.43;;;;;;;18.18;54.36;101661.97;5071409;28;20182;-63
2024/01/25 03:41:51;;;;;;;4.37;1.50;;;;;;;18.18;54.74;101676.28;5055391;28;20187;-63
2024/01/25 03:44:17;;;;;;;7.37;2.27;;;;;;;18.18;54.52;101684.84;5055791;28;20166;-64
2024/01/25 03:46:42;;;;;;;4.20;1.67;;;;;;;18.18;54.86;101689.72;5055431;28;20163;-63
2024/01/25 03:49:07;;;;;;;5.33;1.43;;;;;;;18.19;54.67;101685.66;5054027;28;20239;-65
2024/01/25 03:51:33;;;;;;;6.50;1.50;;;;;;;18.18;54.36;101684.00;5035836;28;20272;-64
2024/01/25 03:53:58;;;;;;;3.93;1.70;;;;;;;18.17;54.85;101677.44;5044717;28;20192;-63
2024/01/25 03:56:25;;;;;;;5.37;1.70;;;;;;;18.17;54.78;101683.16;5070815;28;20174;-63
2024/01/25 03:58:51;;;;;;;4.80;1.70;;;;;;;18.17;54.81;101688.88;5053830;28;20558;-63
2024/01/25 04:01:16;;;;;;;5.77;2.10;;;;;;;18.16;54.63;101687.19;5053104;28;20414;-63
2024/01/25 04:03:42;;;;;;;5.40;2.20;;;;;;;18.16;54.74;101692.09;5062489;28;20190;-63
2024/01/25 04:06:07;;;;;;;6.67;1.83;;;;;;;18.16;54.70;101692.91;5072593;28;20285;-63
2024/01/25 04:08:33;;;;;;;4.60;1.60;;;;;;;18.17;54.93;101699.47;5071887;28;20182;-63
2024/01/25 04:10:58;;;;;;;3.60;1.60;;;;;;;18.17;54.62;101708.06;5053168;28;20187;-63
2024/01/25 04:13:24;;;;;;;4.20;1.60;;;;;;;18.17;54.74;101708.88;5071367;28;20199;-63
2024/01/25 04:15:49;;;;;;;4.30;1.73;;;;;;;18.18;55.08;101718.31;5055933;28;20186;-64
2024/01/25 04:18:15;;;;;;;6.03;1.40;;;;;;;18.17;54.34;101711.72;5090762;28;20185;-63
2024/01/25 04:20:41;;;;;;;4.13;1.67;;;;;;;18.16;54.72;101715.78;5072245;28;20185;-64
2024/01/25 04:23:06;;;;;;;8.47;2.30;;;;;;;18.17;54.40;101708.06;5053963;28;20182;-63
2024/01/25 04:25:32;;;;;;;4.13;1.63;;;;;;;18.16;54.79;101714.97;5055706;28;20869;-64
2024/01/25 04:27:57;;;;;;;5.63;1.57;;;;;;;18.16;54.43;101720.69;5055006;28;20229;-64
2024/01/25 04:30:23;;;;;;;3.23;1.30;;;;;;;18.16;54.89;101724.34;5051296;28;20856;-64
2024/01/25 04:32:48;;;;;;;3.40;1.40;;;;;;;18.17;54.81;101714.59;5088929;28;20713;-63
2024/01/25 04:35:14;;;;;;;5.63;1.70;;;;;;;18.15;54.50;101711.25;5070011;28;20973;-63
2024/01/25 04:37:39;;;;;;;4.80;1.90;;;;;;;18.16;54.78;101718.63;5089421;28;20522;-63
2024/01/25 04:40:06;;;;;;;4.83;2.10;;;;;;;18.16;54.67;101724.34;5071205;28;20181;-63
2024/01/25 04:42:31;;;;;;;4.20;1.73;;;;;;;18.14;54.56;101721.00;5057141;28;20193;-64
2024/01/25 04:44:57;;;;;;;3.73;1.40;;;;;;;18.16;54.33;101714.97;5071732;28;20443;-63
2024/01/25 04:47:22;;;;;;;3.57;1.47;;;;;;;18.15;54.53;101728.41;5030585;28;20206;-64
2024/01/25 04:49:48;;;;;;;5.27;1.60;;;;;;;18.16;54.85;101732.94;5054597;28;20278;-63
2024/01/25 04:52:13;;;;;;;4.10;1.70;;;;;;;18.15;54.73;101736.13;5035649;28;20203;-64
2024/01/25 04:54:38;;;;;;;4.13;1.50;;;;;;;18.14;54.88;101734.44;5090254;28;20174;-63
2024/01/25 04:57:06;;;;;;;4.43;1.60;;;;;;;18.16;54.70;101744.34;5055251;28;20174;-64
2024/01/25 04:59:33;;;;;;;2.83;1.30;;;;;;;18.16;54.89;101740.69;5071804;28;20188;-63
2024/01/25 05:01:59;;;;;;;4.93;1.53;;;;;;;18.14;54.70;101738.16;5069296;28;20435;-64
2024/01/25 05:04:24;;;;;;;4.30;1.67;;;;;;;18.15;54.53;101745.56;5090144;28;20416;-64
2024/01/25 05:06:49;;;;;;;5.97;1.90;;;;;;;18.13;55.08;101742.22;5071803;28;20174;-63
2024/01/25 05:09:15;;;;;;;5.13;1.20;;;;;;;18.15;54.54;101745.56;5054219;28;20178;-63
2024/01/25 05:11:40;;;;;;;4.87;1.57;;;;;;;18.15;54.89;101756.13;5055205;28;20685;-63
2024/01/25 05:14:06;;;;;;;5.20;1.13;;;;;;;18.14;54.85;101749.59;5055083;28;20628;-63
2024/01/25 05:16:32;;;;;;;3.60;1.40;;;;;;;18.14;54.49;101749.59;5054272;28;20182;-64
2024/01/25 05:18:57;;;;;;;5.30;1.70;;;;;;;18.14;54.81;101754.47;5069306;28;20178;-63
2024/01/25 05:21:23;;;;;;;7.70;1.77;;;;;;;18.15;54.64;101756.97;5054728;28;20186;-64
2024/01/25 05:23:48;;;;;;;2.90;1.13;;;;;;;18.14;54.53;101758.16;5071864;28;20227;-63
2024/01/25 05:26:14;;;;;;;3.80;1.77;;;;;;;18.14;54.71;101755.31;5049637;28;20272;-63
2024/01/25 05:28:40;;;;;;;4.80;2.33;;;;;;;18.16;54.26;101757.84;5050464;28;20182;-64
2024/01/25 05:31:09;;;;;;;13.33;1.43;;;;;;;18.16;54.44;101755.78;5017064;28;20457;-63
2024/01/25 05:33:34;;;;;;;7.33;1.77;;;;;;;18.15;54.38;101751.25;5068380;28;20187;-64
2024/01/25 05:36:00;;;;;;;5.30;2.00;;;;;;;18.17;54.48;101750.94;5050165;28;20990;-64
2024/01/25 05:38:25;;;;;;;4.37;1.67;;;;;;;18.16;54.79;101744.34;5030031;28;20723;-63
2024/01/25 05:40:51;;;;;;;3.40;1.47;;;;;;;18.14;54.71;101738.16;5030854;28;20658;-64
2024/01/25 05:43:16;;;;;;;2.23;1.20;;;;;;;18.15;54.44;101756.13;5043139;28;20185;-63
2024/01/25 05:45:43;;;;;;;4.10;1.50;;;;;;;18.16;54.53;101747.22;5028077;28;20269;-64
2024/01/25 05:48:08;;;;;;;3.87;1.57;;;;;;;18.16;54.74;101743.53;5036135;28;20714;-63
2024/01/25 05:50:34;;;;;;;4.33;1.60;;;;;;;18.16;54.72;101740.69;5039517;28;20440;-63
2024/01/25 05:52:59;;;;;;;4.00;1.37;;;;;;;18.15;54.62;101748.41;5049890;28;20280;-63
2024/01/25 05:55:25;;;;;;;4.03;1.60;;;;;;;18.20;54.37;101753.94;5031609;28;20541;-63
2024/01/25 05:57:50;;;;;;;10.17;2.97;;;;;;;18.19;55.94;101757.97;5041113;28;20743;-66
2024/01/25 06:00:16;;;;;;;10.70;3.47;;;;;;;18.20;57.17;101756.78;5032583;28;20240;-66
2024/01/25 06:02:43;;;;;;;12.67;3.80;;;;;;;18.48;58.40;101757.19;5049451;28;20191;-64
2024/01/25 06:05:09;;;;;;;11.30;4.00;;;;;;;18.71;58.68;101765.09;5056314;28;20179;-66
2024/01/25 06:07:34;;;;;;;22.63;4.07;;;;;;;18.56;58.44;101759.16;5047167;28;20448;-65
2024/01/25 06:10:00;;;;;;;10.70;4.00;;;;;;;18.39;58.93;101771.53;5049964;28;20196;-64
2024/01/25 06:12:25;;;;;;;11.90;3.37;;;;;;;18.30;58.20;101776.41;5033744;28;20199;-64
2024/01/25 06:14:52;;;;;;;14.07;4.07;;;;;;;18.24;57.39;101772.09;5025177;28;20207;-66
2024/01/25 06:17:17;;;;;;;16.63;3.53;;;;;;;18.24;57.35;101771.22;5068767;28;20179;-66
2024/01/25 06:19:43;;;;;;;13.47;3.90;;;;;;;18.27;57.63;101776.28;5052911;28;20467;-65
2024/01/25 06:22:08;;;;;;;14.20;3.40;;;;;;;18.37;57.21;101776.75;5086433;28;20190;-66
2024/01/25 06:24:34;;;;;;;9.70;4.03;;;;;;;18.35;56.78;101778.25;5038288;28;20201;-65
2024/01/25 06:26:59;;;;;;;11.47;4.00;;;;;;;18.31;57.30;101766.66;5035494;28;20233;-65
2024/01/25 06:29:25;;;;;;;8.03;2.90;;;;;;;18.35;56.98;101767.69;5064771;28;20179;-65
2024/01/25 06:31:51;;;;;;;7.20;2.63;;;;;;;18.34;56.64;101774.59;5053346;28;20260;-64
2024/01/25 06:34:16;;;;;;;12.37;3.50;;;;;;;18.37;56.93;101771.03;5052562;28;20183;-64
2024/01/25 06:36:41;;;;;;;12.70;3.00;;;;;;;18.37;56.81;101770.19;5051959;28;20187;-62
2024/01/25 06:39:08;;;;;;;15.00;3.33;;;;;;;18.35;55.96;101766.81;5086298;28;20181;-64
2024/01/25 06:41:33;;;;;;;11.37;2.97;;;;;;;18.38;56.35;101772.72;5058907;28;20175;-63
2024/01/25 06:43:59;;;;;;;12.43;3.40;;;;;;;18.48;56.88;101760.91;5055443;28;20441;-63
2024/01/25 06:46:24;;;;;;;11.80;3.30;;;;;;;18.48;56.42;101766.59;5050939;28;20180;-63
2024/01/25 06:48:50;;;;;;;14.00;3.63;;;;;;;18.49;56.01;101778.88;5020456;28;20195;-63
2024/01/25 06:51:16;;;;;;;11.10;4.37;;;;;;;18.47;56.00;101773.50;5018962;28;20722;-63
2024/01/25 06:53:41;;;;;;;15.50;5.40;;;;;;;18.41;56.16;101779.78;5066343;28;20569;-62
2024/01/25 06:56:06;;;;;;;13.60;5.20;;;;;;;18.39;56.70;101780.09;5054467;28;20661;-62
2024/01/25 06:58:32;;;;;;;12.30;4.63;;;;;;;18.35;56.61;101784.84;5020478;28;20262;-63
2024/01/25 07:00:58;;;;;;;16.30;4.90;;;;;;;18.30;56.34;101779.28;5035896;28;20210;-64
2024/01/25 07:03:23;;;;;;;11.80;4.77;;;;;;;18.30;56.40;101782.13;5068767;28;20228;-63
2024/01/25 07:05:49;;;;;;;13.80;4.70;;;;;;;18.27;55.66;101788.53;5017886;28;20183;-64
2024/01/25 07:08:15;;;;;;;16.83;6.90;;;;;;;18.26;56.23;101786.03;5068626;28;20174;-65
2024/01/25 07:10:41;;;;;;;14.53;5.03;;;;;;;18.24;56.60;101783.50;5056575;28;20177;-63
2024/01/25 07:13:06;;;;;;;15.13;4.63;;;;;;;18.30;56.15;101784.16;5041073;28;20473;-64
2024/01/25 07:15:32;;;;;;;13.90;6.00;;;;;;;18.29;56.78;101788.19;5034620;28;20252;-64
2024/01/25 07:17:57;;;;;;;14.57;4.90;;;;;;;18.30;56.50;101782.13;5032995;28;20535;-63
2024/01/25 07:20:23;;;;;;;11.77;4.90;;;;;;;18.28;56.34;101781.66;5033763;28;20168;-64
2024/01/25 07:22:48;;;;;;;16.70;5.70;;;;;;;18.26;56.78;101781.13;5045459;28;20537;-63
2024/01/25 07:25:14;;;;;;;12.37;4.40;;;;;;;18.26;56.62;101772.56;5035382;28;20840;-64
2024/01/25 07:27:39;;;;;;;14.03;5.73;;;;;;;18.29;56.18;101777.59;5068206;28;20661;-63
2024/01/25 07:30:05;;;;;;;13.10;5.43;;;;;;;18.31;56.01;101778.09;5089462;28;20314;-63
2024/01/25 07:32:32;;;;;;;12.67;5.23;;;;;;;18.30;56.52;101781.28;5070040;28;20210;-64
2024/01/25 07:34:57;;;;;;;16.50;5.53;;;;;;;18.30;55.92;101785.00;5053730;28;20197;-64
2024/01/25 07:37:23;;;;;;;10.50;4.10;;;;;;;18.27;56.43;101774.22;5068527;28;20440;-65
2024/01/25 07:39:48;;;;;;;14.40;4.80;;;;;;;18.29;56.45;101782.47;5073602;28;20162;-64
2024/01/25 07:42:14;;;;;;;14.97;5.40;;;;;;;18.28;56.39;101777.94;5052296;28;20266;-63
2024/01/25 07:44:39;;;;;;;11.23;4.27;;;;;;;18.28;56.52;101777.94;5053123;28;20186;-64
2024/01/25 07:47:05;;;;;;;14.10;5.47;;;;;;;18.28;56.25;101790.22;5053363;28;20240;-64
2024/01/25 07:49:30;;;;;;;15.47;4.77;;;;;;;18.30;56.44;101781.28;5066970;28;20190;-64
2024/01/25 07:51:56;;;;;;;9.10;4.40;;;;;;;18.29;56.13;101786.19;5073000;28;20841;-63
2024/01/25 07:54:22;;;;;;;11.33;4.73;;;;;;;18.29;56.32;101786.19;5051314;28;20179;-65
2024/01/25 07:56:47;;;;;;;12.00;4.57;;;;;;;18.28;56.06;101781.66;5070541;28;20615;-63
2024/01/25 07:59:13;;;;;;;14.93;4.67;;;;;;;18.29;56.70;101783.31;5040789;28;20737;-63
2024/01/25 08:01:38;;;;;;;8.80;4.13;;;;;;;18.29;55.85;101783.31;5059737;28;20214;-64
2024/01/25 08:04:04;;;;;;;9.30;4.40;;;;;;;18.29;56.84;101780.47;5035580;28;20179;-65
2024/01/25 08:06:29;;;;;;;9.27;3.90;;;;;;;18.28;56.14;101773.06;5037536;28;20205;-63
2024/01/25 08:08:54;;;;;;;15.53;5.07;;;;;;;18.29;56.49;101774.75;5051731;28;20646;-63
2024/01/25 08:11:21;;;;;;;14.73;5.20;;;;;;;18.32;56.35;101778.94;5065379;28;20688;-63
2024/01/25 08:13:47;;;;;;;10.37;3.97;;;;;;;18.33;56.51;101778.63;5072175;28;20206;-63
2024/01/25 08:16:13;;;;;;;10.53;4.20;;;;;;;18.30;56.24;101781.28;5055580;28;20445;-63
2024/01/25 08:18:39;;;;;;;9.87;4.30;;;;;;;18.31;56.12;101778.09;5090075;28;20451;-62
2024/01/25 08:21:05;;;;;;;9.97;4.63;;;;;;;18.31;56.05;101783.81;5090579;28;20214;-63
2024/01/25 08:23:30;;;;;;;14.07;4.63;;;;;;;18.29;55.98;101771.88;5069615;28;20431;-63
2024/01/25 08:25:56;;;;;;;11.07;4.57;;;;;;;18.30;56.11;101769.84;5090993;28;20166;-63
2024/01/25 08:28:21;;;;;;;10.97;4.10;;;;;;;18.31;56.46;101780.94;5071374;28;20189;-63
2024/01/25 08:30:47;;;;;;;11.70;4.73;;;;;;;18.29;56.32;101774.75;5056411;28;20192;-63
2024/01/25 08:33:13;;;;;;;12.83;4.63;;;;;;;18.31;56.12;101766.66;5072206;28;20201;-63
2024/01/25 08:35:40;;;;;;;10.80;4.40;;;;;;;18.29;56.29;101769.03;5068478;28;20186;-63
2024/01/25 08:38:06;;;;;;;13.53;4.60;;;;;;;18.32;55.65;101758.94;5072573;28;20190;-63
2024/01/25 08:40:32;;;;;;;8.80;3.10;;;;;;;18.30;56.43;101764.97;5054783;28;20956;-63
2024/01/25 08:42:58;;;;;;;7.70;3.40;;;;;;;18.31;55.93;101760.94;5072165;28;20412;-64
2024/01/25 08:45:23;;;;;;;9.37;4.13;;;;;;;18.31;55.75;101762.97;5064722;28;20202;-63
2024/01/25 08:47:49;;;;;;;8.87;3.50;;;;;;;18.34;56.07;101766.00;5083686;28;20261;-64
2024/01/25 08:50:15;;;;;;;10.57;4.10;;;;;;;18.33;56.18;101767.19;5055579;28;20202;-64
2024/01/25 08:52:41;;;;;;;9.73;3.93;;;;;;;18.34;56.30;101754.56;5054319;28;20851;-63
2024/01/25 08:55:07;;;;;;;8.50;4.13;;;;;;;18.33;56.15;101758.63;5071170;28;20186;-63
2024/01/25 08:57:32;;;;;;;7.33;3.20;;;;;;;18.34;55.57;101760.28;5070905;28;20167;-63
2024/01/25 09:00:01;;;;;;;7.63;3.87;;;;;;;18.36;56.03;101763.63;5037804;28;20417;-63
2024/01/25 09:02:27;;;;;;;10.03;3.07;;;;;;;18.37;55.92;101770.19;5037667;28;20179;-63
2024/01/25 09:04:53;;;;;;;7.10;3.67;;;;;;;18.36;55.75;101777.09;5051415;28;20406;-64
2024/01/25 09:07:22;;;;;;;10.90;3.97;;;;;;;18.34;55.53;101782.31;5069121;28;20912;-63
2024/01/25 09:09:48;;;;;;;8.60;4.30;;;;;;;18.36;55.65;101780.78;5037868;28;20797;-63
2024/01/25 09:12:14;;;;;;;11.07;3.80;;;;;;;18.38;55.93;101784.16;5070693;28;20454;-63
2024/01/25 09:14:39;;;;;;;13.63;4.50;;;;;;;18.36;55.61;101783.66;5071987;28;20274;-63
2024/01/25 09:17:05;;;;;;;10.47;4.10;;;;;;;18.35;56.06;101786.84;5071832;28;20638;-63
2024/01/25 09:19:30;;;;;;;6.63;3.67;;;;;;;18.35;56.07;101789.69;5086104;28;20190;-63
2024/01/25 09:21:59;;;;;;;9.30;3.40;;;;;;;18.36;55.80;101786.50;5035276;28;20557;-63
2024/01/25 09:24:25;;;;;;;6.67;3.60;;;;;;;18.36;55.72;101797.94;5051741;28;20179;-64
2024/01/25 09:26:50;;;;;;;8.37;3.90;;;;;;;18.37;55.64;101796.75;5068344;28;21218;-63
2024/01/25 09:29:16;;;;;;;9.63;4.07;;;;;;;18.35;55.83;101795.41;5084529;28;20194;-64
2024/01/25 09:31:41;;;;;;;7.77;3.63;;;;;;;18.35;55.86;101802.00;5070938;28;20205;-64
2024/01/25 09:34:07;;;;;;;8.60;3.50;;;;;;;18.34;55.80;101802.31;5068809;28;20644;-63
2024/01/25 09:36:32;;;;;;;5.70;3.30;;;;;;;18.36;56.02;101811.41;5089026;28;20695;-63
2024/01/25 09:38:58;;;;;;;9.93;3.90;;;;;;;18.40;55.73;101812.38;5054320;28;20182;-63
2024/01/25 09:41:23;;;;;;;8.40;4.03;;;;;;;18.35;55.97;101813.44;5069852;28;20597;-63
2024/01/25 09:43:49;;;;;;;12.07;3.70;;;;;;;18.37;56.00;101804.50;5063763;28;20237;-63
2024/01/25 09:46:15;;;;;;;10.30;3.40;;;;;;;18.36;55.67;101815.09;5068644;28;20233;-63
2024/01/25 09:48:43;;;;;;;6.97;3.40;;;;;;;18.38;55.77;101809.91;5057407;28;20257;-63
2024/01/25 09:51:09;;;;;;;7.77;3.40;;;;;;;18.34;55.77;101817.47;5072848;28;20523;-63
2024/01/25 09:53:34;;;;;;;6.13;3.67;;;;;;;18.34;56.08;101817.47;5073563;28;20892;-63
2024/01/25 09:56:08;;;;;;;6.97;3.50;;;;;;;18.37;55.51;101819.63;5055643;28;20171;-64
2024/01/25 09:58:41;;;;;;;6.40;2.80;;;;;;;18.37;55.68;101822.47;5059937;28;20187;-63
2024/01/25 10:01:11;;;;;;;7.47;3.80;;;;;;;18.37;55.94;101824.53;5038463;28;20417;-63
2024/01/25 10:03:36;;;;;;;5.87;3.20;;;;;;;18.37;55.76;101822.47;5090533;28;20816;-63
2024/01/25 10:06:03;;;;;;;7.60;3.40;;;;;;;18.38;55.42;101829.06;5055195;28;20529;-63
2024/01/25 10:08:29;;;;;;;8.00;3.57;;;;;;;18.38;55.70;101826.19;5054232;28;20254;-64
2024/01/25 10:10:54;;;;;;;7.90;3.13;;;;;;;18.37;55.64;101830.25;5055126;28;20429;-63
2024/01/25 10:13:20;;;;;;;7.87;3.20;;;;;;;18.37;55.35;101822.47;5074148;28;20472;-64
2024/01/25 10:15:47;;;;;;;7.00;3.50;;;;;;;18.38;55.52;101818.47;5057013;28;20173;-63
2024/01/25 10:18:13;;;;;;;7.20;2.77;;;;;;;18.40;55.59;101818.09;5055534;28;20238;-64
2024/01/25 10:20:42;;;;;;;9.30;3.10;;;;;;;18.41;55.63;101812.03;5054162;28;20488;-63
2024/01/25 10:23:08;;;;;;;12.70;3.60;;;;;;;18.37;55.94;101822.47;5080582;28;20432;-63
2024/01/25 10:25:37;;;;;;;6.40;2.40;;;;;;;18.38;55.74;101815.63;5054665;28;20432;-63
2024/01/25 10:28:06;;;;;;;8.23;3.20;;;;;;;18.40;55.34;101813.22;5051201;28;20473;-63
2024/01/25 10:30:33;;;;;;;6.50;3.03;;;;;;;18.37;55.68;101799.63;5067596;28;20441;-63
2024/01/25 10:32:58;;;;;;;7.37;3.70;;;;;;;18.40;55.47;101798.94;5054425;28;20522;-63
2024/01/25 10:35:24;;;;;;;7.03;2.83;;;;;;;18.41;55.69;101799.78;5036911;28;20790;-64
2024/01/25 10:37:49;;;;;;;7.63;3.83;;;;;;;18.40;56.09;101804.66;5054275;28;20179;-63
2024/01/25 10:40:15;;;;;;;7.17;2.60;;;;;;;18.41;55.36;101809.19;5036169;28;20168;-63
2024/01/25 10:42:40;;;;;;;6.13;2.73;;;;;;;18.42;55.39;101805.13;5053359;28;20187;-63
2024/01/25 10:45:07;;;;;;;6.20;2.70;;;;;;;18.41;55.79;101800.59;5036108;28;20756;-64
2024/01/25 10:47:35;;;;;;;11.27;3.70;;;;;;;18.40;55.70;101796.06;5052626;28;20309;-64
2024/01/25 10:50:02;;;;;;;7.10;3.00;;;;;;;18.41;55.72;101796.94;5051342;28;20787;-63
2024/01/25 10:52:28;;;;;;;6.23;2.93;;;;;;;18.43;55.09;101788.84;5066640;28;20461;-64
2024/01/25 10:54:54;;;;;;;7.50;3.37;;;;;;;18.42;55.30;101787.97;5070631;28;20439;-63
2024/01/25 10:57:19;;;;;;;5.47;3.13;;;;;;;18.46;55.35;101791.84;5035580;28;20433;-64
2024/01/25 10:59:44;;;;;;;6.83;2.90;;;;;;;18.47;55.39;101795.53;5070825;28;20178;-63
2024/01/25 11:02:10;;;;;;;9.67;4.37;;;;;;;18.49;55.19;101791.16;5070061;28;20174;-63
2024/01/25 11:04:36;;;;;;;7.43;3.30;;;;;;;18.47;55.23;101793.50;5070824;28;20185;-63
2024/01/25 11:07:08;;;;;;;7.57;3.50;;;;;;;18.51;55.52;101794.50;5070857;28;20166;-63
2024/01/25 11:09:34;;;;;;;6.70;2.73;;;;;;;18.52;55.36;101790.44;5054077;28;20417;-63
2024/01/25 11:12:00;;;;;;;9.80;3.43;;;;;;;18.55;55.08;101788.94;5071628;28;20526;-63
2024/01/25 11:14:25;;;;;;;8.90;3.00;;;;;;;18.55;55.12;101775.47;5053349;28;20608;-63
2024/01/25 11:16:51;;;;;;;6.47;3.10;;;;;;;18.55;54.89;101771.75;5052642;28;20171;-63